createdAt,value
2022-12-05T00:01:42.451Z,92.95
2022-12-05T00:04:13.183Z,93.46
2022-12-05T00:06:42.387Z,92.86
2022-12-05T00:09:12.122Z,92.55
2022-12-05T00:11:42.837Z,92.30
2022-12-05T00:14:10.572Z,92.54
2022-12-05T00:16:40.629Z,92.50
2022-12-05T00:19:10.964Z,92.11
2022-12-05T00:21:38.671Z,92.39
2022-12-05T00:24:08.602Z,91.94
2022-12-05T00:26:36.051Z,91.87
2022-12-05T00:29:03.995Z,91.95
2022-12-05T00:31:31.275Z,92.70
2022-12-05T00:34:01.648Z,92.48
2022-12-05T00:36:33.169Z,92.08
2022-12-05T00:39:03.045Z,91.84
2022-12-05T00:41:30.553Z,92.18
2022-12-05T00:44:00.774Z,91.27
2022-12-05T00:46:30.828Z,90.58
2022-12-05T00:49:00.225Z,91.67
2022-12-05T00:51:34.804Z,91.54
2022-12-05T00:54:07.008Z,91.71
2022-12-05T00:56:34.813Z,91.05
2022-12-05T00:59:03.683Z,91.14
2022-12-05T01:01:41.072Z,90.97
2022-12-05T01:04:15.928Z,90.90
2022-12-05T01:06:43.665Z,90.86
2022-12-05T01:09:15.544Z,90.32
2022-12-05T01:11:44.615Z,91.91
2022-12-05T01:14:14.042Z,92.36
2022-12-05T01:16:44.408Z,92.23
2022-12-05T01:19:29.418Z,92.09
2022-12-05T01:21:57.248Z,92.01
2022-12-05T01:24:26.140Z,91.69
2022-12-05T01:26:53.592Z,92.30
2022-12-05T01:29:22.853Z,92.95
2022-12-05T01:31:50.424Z,92.43
2022-12-05T01:34:18.497Z,92.48
2022-12-05T01:36:46.009Z,92.54
2022-12-05T01:39:14.186Z,92.30
2022-12-05T01:41:46.019Z,93.53
2022-12-05T01:44:12.931Z,93.42
2022-12-05T01:46:49.225Z,93.08
2022-12-05T01:49:31.482Z,92.97
2022-12-05T01:52:23.549Z,92.18
2022-12-05T01:54:54.832Z,91.79
2022-12-05T01:57:23.548Z,91.07
2022-12-05T01:59:58.779Z,91.06
2022-12-05T02:02:29.470Z,91.54
2022-12-05T02:05:26.571Z,92.10
2022-12-05T02:07:53.742Z,92.04
2022-12-05T02:10:21.119Z,91.60
2022-12-05T02:12:51.390Z,92.71
2022-12-05T02:15:43.543Z,92.68
2022-12-05T02:18:40.908Z,93.64
2022-12-05T02:21:35.849Z,94.14
2022-12-05T02:24:22.524Z,93.85
2022-12-05T02:27:45.644Z,92.99
2022-12-05T02:33:23.723Z,91.73
2022-12-05T02:36:18.037Z,92.17
2022-12-05T02:39:27.178Z,92.26
2022-12-05T02:42:04.967Z,91.63
2022-12-05T02:44:45.700Z,91.49
2022-12-05T02:47:18.481Z,91.13
2022-12-05T02:49:45.682Z,91.33
2022-12-05T02:52:15.327Z,91.49
2022-12-05T02:54:46.404Z,91.19
2022-12-05T02:57:15.054Z,90.24
2022-12-05T02:59:42.133Z,90.63
2022-12-05T03:02:22.571Z,90.80
2022-12-05T03:04:49.611Z,92.50
2022-12-05T03:07:19.330Z,92.98
2022-12-05T03:10:00.831Z,92.57
2022-12-05T03:12:38.626Z,93.61
2022-12-05T03:15:21.004Z,93.54
2022-12-05T03:18:06.624Z,92.88
2022-12-05T03:21:16.769Z,92.95
2022-12-05T03:23:51.961Z,92.60
2022-12-05T03:27:08.022Z,92.61
2022-12-05T03:30:14.514Z,93.20
2022-12-05T03:33:15.227Z,92.08
2022-12-05T03:36:06.515Z,93.17
2022-12-05T03:39:02.505Z,91.88
2022-12-05T03:41:47.671Z,92.20
2022-12-05T03:44:29.023Z,92.34
2022-12-05T03:47:12.682Z,91.52
2022-12-05T03:49:49.289Z,91.55
2022-12-05T03:52:30.728Z,91.68
2022-12-05T03:55:03.478Z,91.55
2022-12-05T03:58:27.263Z,91.43
2022-12-05T04:00:57.618Z,91.23
2022-12-05T04:03:51.001Z,91.34
2022-12-05T04:06:39.299Z,90.65
2022-12-05T04:09:24.407Z,91.04
2022-12-05T04:11:59.522Z,90.65
2022-12-05T04:14:47.364Z,90.66
2022-12-05T04:17:32.948Z,91.59
2022-12-05T04:20:28.638Z,92.11
2022-12-05T04:22:55.609Z,92.62
2022-12-05T04:25:34.406Z,91.79
2022-12-05T04:28:47.220Z,91.92
2022-12-05T04:31:26.264Z,91.52
2022-12-05T04:34:00.753Z,90.92
2022-12-05T04:36:41.221Z,90.79
2022-12-05T04:39:18.608Z,90.60
2022-12-05T04:41:53.362Z,90.62
2022-12-05T04:44:30.860Z,91.18
2022-12-05T04:47:02.385Z,90.94
2022-12-05T04:49:33.114Z,90.89
2022-12-05T04:52:07.925Z,92.13
2022-12-05T04:54:46.700Z,92.70
2022-12-05T04:57:30.678Z,92.03
2022-12-05T04:59:57.924Z,92.93
2022-12-05T05:02:46.783Z,92.34
2022-12-05T05:05:17.416Z,91.26
2022-12-05T05:07:51.922Z,91.19
2022-12-05T05:10:39.625Z,90.62
2022-12-05T05:13:06.594Z,90.73
2022-12-05T05:15:33.547Z,90.92
2022-12-05T05:18:00.488Z,90.23
2022-12-05T05:20:27.586Z,90.06
2022-12-05T05:22:57.774Z,89.49
2022-12-05T05:25:26.089Z,89.18
2022-12-05T05:27:56.251Z,89.11
2022-12-05T05:30:25.056Z,89.33
2022-12-05T05:32:52.469Z,88.92
2022-12-05T05:35:20.225Z,90.01
2022-12-05T05:37:47.435Z,89.88
2022-12-05T05:40:14.555Z,89.86
2022-12-05T05:42:49.638Z,89.19
2022-12-05T05:45:17.521Z,89.01
2022-12-05T05:47:45.106Z,89.44
2022-12-05T05:50:17.856Z,89.47
2022-12-05T05:52:48.188Z,90.00
2022-12-05T05:55:15.136Z,90.12
2022-12-05T05:57:42.080Z,89.38
2022-12-05T06:00:10.289Z,89.41
2022-12-05T06:02:37.765Z,89.29
2022-12-05T06:05:05.778Z,89.44
2022-12-05T06:07:32.978Z,89.27
2022-12-05T06:10:00.644Z,89.85
2022-12-05T06:12:28.109Z,89.41
2022-12-05T06:14:55.196Z,89.42
2022-12-05T06:17:22.208Z,88.84
2022-12-05T06:19:49.204Z,89.26
2022-12-05T06:22:16.236Z,89.95
2022-12-05T06:24:43.456Z,90.08
2022-12-05T06:27:10.439Z,89.65
2022-12-05T06:29:37.419Z,89.89
2022-12-05T06:32:04.855Z,89.50
2022-12-05T06:34:32.772Z,89.12
2022-12-05T06:37:00.191Z,88.94
2022-12-05T06:39:27.522Z,88.96
2022-12-05T06:41:54.539Z,89.33
2022-12-05T06:44:22.058Z,89.62
2022-12-05T06:46:49.311Z,88.86
2022-12-05T06:49:16.248Z,89.11
2022-12-05T06:51:43.187Z,89.21
2022-12-05T06:54:13.355Z,88.85
2022-12-05T06:56:40.543Z,88.44
2022-12-05T06:59:07.638Z,89.20
2022-12-05T07:01:42.435Z,89.09
2022-12-05T07:04:35.812Z,89.00
2022-12-05T07:07:02.855Z,88.94
2022-12-05T07:09:48.464Z,88.65
2022-12-05T07:12:19.431Z,89.29
2022-12-05T07:14:49.046Z,89.15
2022-12-05T07:17:18.450Z,89.89
2022-12-05T07:19:48.346Z,90.11
2022-12-05T07:22:16.421Z,89.98
2022-12-05T07:24:45.467Z,89.54
2022-12-05T07:27:13.994Z,89.09
2022-12-05T07:29:41.457Z,89.19
2022-12-05T07:32:08.913Z,88.82
2022-12-05T07:34:35.942Z,89.21
2022-12-05T07:37:03.247Z,88.98
2022-12-05T07:39:30.545Z,88.39
2022-12-05T07:41:57.487Z,88.13
2022-12-05T07:44:24.412Z,88.61
2022-12-05T07:46:51.422Z,89.19
2022-12-05T07:49:18.422Z,88.57
2022-12-05T07:51:45.424Z,88.61
2022-12-05T07:54:12.335Z,89.07
2022-12-05T07:56:43.234Z,89.10
2022-12-05T07:59:13.273Z,89.46
2022-12-05T08:01:40.377Z,88.81
2022-12-05T08:04:12.087Z,88.34
2022-12-05T08:06:42.044Z,88.93
2022-12-05T08:09:09.097Z,88.83
2022-12-05T08:11:36.290Z,88.55
2022-12-05T08:14:05.829Z,89.08
2022-12-05T08:16:33.792Z,90.23
2022-12-05T08:19:05.687Z,90.08
2022-12-05T08:21:33.744Z,89.43
2022-12-05T08:24:01.237Z,89.83
2022-12-05T08:26:31.063Z,89.49
2022-12-05T08:29:09.294Z,89.48
2022-12-05T08:31:43.119Z,89.50
2022-12-05T08:34:13.152Z,89.01
2022-12-05T08:36:40.981Z,89.28
2022-12-05T08:39:12.098Z,89.46
2022-12-05T08:41:39.053Z,89.37
2022-12-05T08:44:08.066Z,89.66
2022-12-05T08:46:38.623Z,89.55
2022-12-05T08:49:06.596Z,89.54
2022-12-05T08:51:33.829Z,89.56
2022-12-05T08:54:05.234Z,89.21
2022-12-05T08:56:33.150Z,89.41
2022-12-05T08:59:05.816Z,88.52
2022-12-05T09:01:37.139Z,88.51
2022-12-05T09:04:05.792Z,88.88
2022-12-05T09:06:34.456Z,88.19
2022-12-05T09:09:06.043Z,88.28
2022-12-05T09:11:37.111Z,88.46
2022-12-05T09:14:05.281Z,88.43
2022-12-05T09:16:38.809Z,87.88
2022-12-05T09:19:12.868Z,87.95
2022-12-05T09:21:40.518Z,87.80
2022-12-05T09:24:07.577Z,88.19
2022-12-05T09:26:34.802Z,88.16
2022-12-05T09:29:03.447Z,87.77
2022-12-05T09:31:30.945Z,88.07
2022-12-05T09:33:58.138Z,88.17
2022-12-05T09:36:31.545Z,87.52
2022-12-05T09:39:04.286Z,86.94
2022-12-05T09:42:18.663Z,86.89
2022-12-05T09:45:31.759Z,88.16
2022-12-05T09:48:14.879Z,88.43
2022-12-05T09:50:57.779Z,88.04
2022-12-05T09:53:38.896Z,88.10
2022-12-05T09:56:17.842Z,87.45
2022-12-05T09:58:55.638Z,87.30
2022-12-05T10:01:41.995Z,87.04
2022-12-05T10:05:00.106Z,87.39
2022-12-05T10:07:38.195Z,87.63
2022-12-05T10:10:35.005Z,88.48
2022-12-05T10:13:50.905Z,88.32
2022-12-05T10:16:31.775Z,88.29
2022-12-05T10:19:22.073Z,88.18
2022-12-05T10:22:27.255Z,87.73
2022-12-05T10:25:02.578Z,88.51
2022-12-05T10:27:46.630Z,88.11
2022-12-05T10:30:18.027Z,88.96
2022-12-05T10:32:56.568Z,88.61
2022-12-05T10:35:33.959Z,88.59
2022-12-05T10:38:06.578Z,88.07
2022-12-05T10:40:41.097Z,88.79
2022-12-05T10:43:13.246Z,89.91
2022-12-05T10:45:47.461Z,88.46
2022-12-05T10:48:19.989Z,88.71
2022-12-05T10:50:56.515Z,88.24
2022-12-05T10:53:49.677Z,89.14
2022-12-05T10:56:40.703Z,89.06
2022-12-05T10:59:26.191Z,88.69
2022-12-05T11:01:57.488Z,88.85
2022-12-05T11:04:43.436Z,88.98
2022-12-05T11:07:49.576Z,89.90
2022-12-05T11:10:26.641Z,90.73
2022-12-05T11:12:59.141Z,89.93
2022-12-05T11:15:30.119Z,90.90
2022-12-05T11:18:17.433Z,91.11
2022-12-05T11:20:44.554Z,90.15
2022-12-05T11:23:28.448Z,89.54
2022-12-05T11:25:57.561Z,91.17
2022-12-05T11:28:35.324Z,90.67
2022-12-05T11:31:25.547Z,89.67
2022-12-05T11:34:21.059Z,89.47
2022-12-05T11:36:57.429Z,90.51
2022-12-05T11:39:25.975Z,89.98
2022-12-05T11:42:26.550Z,90.04
2022-12-05T11:45:19.358Z,89.06
2022-12-05T11:47:58.758Z,88.80
2022-12-05T11:50:37.292Z,88.68
2022-12-05T11:53:47.454Z,88.57
2022-12-05T11:56:38.424Z,87.94
2022-12-05T11:59:36.701Z,87.45
2022-12-05T12:02:35.243Z,87.72
2022-12-05T12:05:24.563Z,87.92
2022-12-05T12:08:16.111Z,87.43
2022-12-05T12:11:29.700Z,87.97
2022-12-05T12:14:28.635Z,88.38
2022-12-05T12:17:19.127Z,88.02
2022-12-05T12:20:10.930Z,87.98
2022-12-05T12:22:50.114Z,87.86
2022-12-05T12:25:43.440Z,87.34
2022-12-05T12:28:29.350Z,87.64
2022-12-05T12:31:12.475Z,87.46
2022-12-05T12:34:03.814Z,87.69
2022-12-05T12:36:47.518Z,87.39
2022-12-05T12:39:40.140Z,87.30
2022-12-05T12:42:30.638Z,87.08
2022-12-05T12:45:34.813Z,87.00
2022-12-05T12:48:23.519Z,87.27
2022-12-05T12:50:55.262Z,88.15
2022-12-05T12:53:46.683Z,87.57
2022-12-05T12:56:49.489Z,87.82
2022-12-05T12:59:25.255Z,87.17
2022-12-05T13:02:16.308Z,87.66
2022-12-05T13:04:54.528Z,87.29
2022-12-05T13:08:16.647Z,86.62
2022-12-05T13:10:47.602Z,86.17
2022-12-05T13:13:36.672Z,85.58
2022-12-05T13:16:08.015Z,86.04
2022-12-05T13:18:35.932Z,86.28
2022-12-05T13:21:09.155Z,86.69
2022-12-05T13:23:50.906Z,86.99
2022-12-05T13:26:18.483Z,87.07
2022-12-05T13:29:05.057Z,87.72
2022-12-05T13:31:42.233Z,88.00
2022-12-05T13:34:29.584Z,86.95
2022-12-05T13:37:17.842Z,87.22
2022-12-05T13:40:16.065Z,87.21
2022-12-05T13:42:43.400Z,87.25
2022-12-05T13:45:17.993Z,86.79
2022-12-05T13:48:00.162Z,86.70
2022-12-05T13:50:51.745Z,86.82
2022-12-05T13:53:41.253Z,86.47
2022-12-05T13:56:13.935Z,86.61
2022-12-05T13:58:50.115Z,87.22
2022-12-05T14:01:26.243Z,87.61
2022-12-05T14:03:59.169Z,87.26
2022-12-05T14:06:40.683Z,87.26
2022-12-05T14:09:19.359Z,87.54
2022-12-05T14:12:11.002Z,87.71
2022-12-05T14:14:56.050Z,87.91
2022-12-05T14:17:44.046Z,87.54
2022-12-05T14:20:46.990Z,88.08
2022-12-05T14:23:51.651Z,87.72
2022-12-05T14:26:53.578Z,88.06
2022-12-05T14:29:35.311Z,87.40
2022-12-05T14:32:19.331Z,87.13
2022-12-05T14:35:17.667Z,87.55
2022-12-05T14:38:07.811Z,88.07
2022-12-05T14:40:44.516Z,88.09
2022-12-05T14:43:34.364Z,87.86
2022-12-05T14:46:08.480Z,87.82
2022-12-05T14:48:47.267Z,88.10
2022-12-05T14:51:32.907Z,88.46
2022-12-05T14:54:15.192Z,88.13
2022-12-05T14:56:51.002Z,88.74
2022-12-05T14:59:33.486Z,88.07
2022-12-05T15:02:04.194Z,88.10
2022-12-05T15:05:18.464Z,88.89
2022-12-05T15:07:47.485Z,88.80
2022-12-05T15:10:25.213Z,88.42
2022-12-05T15:13:00.100Z,88.70
2022-12-05T15:16:07.767Z,88.84
2022-12-05T15:18:47.851Z,89.14
2022-12-05T15:21:39.489Z,89.88
2022-12-05T15:24:14.230Z,89.39
2022-12-05T15:27:02.236Z,89.33
2022-12-05T15:29:32.701Z,89.20
2022-12-05T15:32:02.668Z,89.46
2022-12-05T15:34:47.690Z,89.63
2022-12-05T15:37:24.437Z,89.82
2022-12-05T15:40:14.345Z,89.37
2022-12-05T15:42:46.331Z,89.77
2022-12-05T15:45:16.060Z,90.02
2022-12-05T15:47:54.179Z,90.21
2022-12-05T15:50:44.529Z,90.49
2022-12-05T15:53:16.931Z,89.88
2022-12-05T15:55:55.930Z,89.50
2022-12-05T15:59:11.694Z,89.99
2022-12-05T16:01:47.564Z,90.22
2022-12-05T16:04:58.268Z,89.86
2022-12-05T16:07:30.084Z,90.09
2022-12-05T16:10:02.515Z,89.23
2022-12-05T16:12:40.856Z,89.70
2022-12-05T16:15:23.146Z,89.60
2022-12-05T16:17:58.956Z,90.17
2022-12-05T16:20:32.987Z,89.77
2022-12-05T16:23:30.842Z,90.40
2022-12-05T16:26:16.268Z,90.37
2022-12-05T16:28:56.168Z,90.07
2022-12-05T16:31:23.285Z,90.35
2022-12-05T16:34:12.844Z,90.28
2022-12-05T16:36:48.277Z,90.53
2022-12-05T16:39:19.375Z,90.12
2022-12-05T16:41:48.416Z,90.21
2022-12-05T16:44:46.958Z,90.64
2022-12-05T16:47:25.796Z,90.42
2022-12-05T16:49:52.773Z,89.98
2022-12-05T16:52:19.785Z,90.06
2022-12-05T16:54:48.775Z,89.80
2022-12-05T16:57:17.147Z,89.61
2022-12-05T16:59:45.588Z,89.85
2022-12-05T17:02:18.984Z,89.47
2022-12-05T17:04:47.030Z,89.52
2022-12-05T17:07:14.034Z,89.38
2022-12-05T17:09:41.092Z,89.99
2022-12-05T17:12:21.128Z,89.91
2022-12-05T17:14:48.137Z,89.90
2022-12-05T17:17:19.056Z,89.55
2022-12-05T17:19:46.032Z,89.30
2022-12-05T17:22:15.424Z,89.13
2022-12-05T17:24:42.566Z,89.44
2022-12-05T17:27:12.240Z,89.34
2022-12-05T17:29:39.279Z,89.18
2022-12-05T17:32:06.379Z,89.33
2022-12-05T17:34:33.272Z,89.26
2022-12-05T17:37:00.399Z,88.72
2022-12-05T17:39:28.765Z,88.86
2022-12-05T17:41:56.375Z,88.76
2022-12-05T17:44:23.848Z,88.72
2022-12-05T17:46:50.923Z,88.32
2022-12-05T17:49:18.357Z,88.67
2022-12-05T17:52:19.981Z,88.20
2022-12-05T17:54:33.187Z,88.13
2022-12-05T17:57:00.168Z,88.35
2022-12-05T17:59:27.196Z,88.56
2022-12-05T18:01:54.166Z,88.35
2022-12-05T18:04:23.443Z,88.44
2022-12-05T18:06:51.208Z,88.03
2022-12-05T18:09:18.462Z,87.94
2022-12-05T18:11:45.378Z,87.85
2022-12-05T18:14:12.279Z,87.82
2022-12-05T18:16:39.324Z,87.56
2022-12-05T18:19:08.223Z,87.08
2022-12-05T18:21:35.674Z,87.27
2022-12-05T18:24:02.638Z,87.22
2022-12-05T18:26:29.666Z,87.48
2022-12-05T18:28:57.453Z,87.39
2022-12-05T18:31:24.608Z,87.13
2022-12-05T18:33:51.951Z,87.02
2022-12-05T18:36:21.036Z,87.23
2022-12-05T18:38:56.833Z,86.80
2022-12-05T18:41:26.600Z,87.25
2022-12-05T18:43:54.046Z,87.12
2022-12-05T18:46:21.034Z,87.13
2022-12-05T18:48:49.042Z,86.81
2022-12-05T18:51:22.642Z,86.84
2022-12-05T18:53:52.851Z,86.75
2022-12-05T18:56:30.296Z,86.73
2022-12-05T18:59:07.510Z,86.74
2022-12-05T19:01:38.748Z,86.23
2022-12-05T19:04:07.661Z,86.07
2022-12-05T19:06:36.844Z,86.65
2022-12-05T19:09:12.113Z,87.11
2022-12-05T19:11:47.776Z,86.82
2022-12-05T19:14:19.297Z,86.85
2022-12-05T19:16:51.684Z,86.85
2022-12-05T19:19:23.482Z,86.84
2022-12-05T19:21:50.847Z,87.29
2022-12-05T19:24:19.542Z,87.38
2022-12-05T19:26:50.369Z,87.69
2022-12-05T19:29:17.847Z,87.42
2022-12-05T19:31:45.270Z,87.30
2022-12-05T19:34:13.198Z,86.61
2022-12-05T19:36:46.168Z,86.40
2022-12-05T19:39:19.569Z,86.87
2022-12-05T19:41:47.118Z,87.10
2022-12-05T19:44:14.532Z,87.18
2022-12-05T19:46:42.134Z,87.30
2022-12-05T19:49:12.799Z,87.58
2022-12-05T19:51:40.668Z,87.26
2022-12-05T19:54:09.042Z,87.50
2022-12-05T19:56:37.043Z,88.02
2022-12-05T19:59:05.625Z,87.92
2022-12-05T20:01:35.827Z,88.10
2022-12-05T20:04:10.790Z,87.81
2022-12-05T20:06:47.843Z,87.84
2022-12-05T20:09:18.057Z,87.38
2022-12-05T20:11:53.923Z,87.41
2022-12-05T20:14:24.291Z,87.55
2022-12-05T20:16:52.112Z,87.55
2022-12-05T20:19:19.206Z,87.62
2022-12-05T20:21:46.138Z,87.72
2022-12-05T20:24:13.141Z,88.03
2022-12-05T20:26:43.735Z,88.08
2022-12-05T20:29:11.335Z,88.19
2022-12-05T20:31:42.840Z,88.10
2022-12-05T20:34:13.712Z,88.09
2022-12-05T20:36:41.441Z,87.94
2022-12-05T20:39:14.593Z,87.75
2022-12-05T20:41:41.876Z,87.37
2022-12-05T20:44:11.968Z,87.89
2022-12-05T20:46:39.050Z,87.57
2022-12-05T20:49:06.123Z,87.47
2022-12-05T20:51:34.574Z,87.50
2022-12-05T20:54:03.241Z,87.60
2022-12-05T20:56:33.033Z,88.18
2022-12-05T20:59:05.711Z,87.93
2022-12-05T21:01:36.106Z,88.12
2022-12-05T21:04:06.480Z,87.69
2022-12-05T21:06:37.179Z,87.57
2022-12-05T21:09:14.816Z,87.44
2022-12-05T21:11:43.012Z,87.45
2022-12-05T21:14:10.180Z,87.98
2022-12-05T21:16:37.819Z,88.34
2022-12-05T21:19:04.819Z,87.91
2022-12-05T21:21:34.149Z,88.17
2022-12-05T21:24:03.416Z,88.13
2022-12-05T21:26:34.219Z,88.02
2022-12-05T21:29:03.402Z,88.06
2022-12-05T21:31:34.641Z,87.83
2022-12-05T21:34:06.008Z,87.66
2022-12-05T21:36:36.707Z,87.40
2022-12-05T21:39:05.735Z,87.96
2022-12-05T21:41:33.423Z,87.71
2022-12-05T21:44:01.644Z,88.17
2022-12-05T21:46:29.091Z,87.72
2022-12-05T21:48:56.101Z,88.20
2022-12-05T21:51:23.281Z,88.01
2022-12-05T21:53:51.164Z,88.15
2022-12-05T21:56:23.008Z,87.96
2022-12-05T21:58:50.344Z,88.15
2022-12-05T22:01:24.166Z,87.43
2022-12-05T22:03:54.026Z,87.47
2022-12-05T22:06:21.078Z,87.50
2022-12-05T22:08:48.346Z,87.76
2022-12-05T22:11:18.869Z,88.17
2022-12-05T22:13:46.326Z,88.07
2022-12-05T22:16:13.745Z,87.88
2022-12-05T22:18:41.681Z,87.73
2022-12-05T22:21:16.619Z,87.44
2022-12-05T22:23:43.951Z,87.78
2022-12-05T22:26:15.232Z,87.38
2022-12-05T22:28:42.577Z,87.58
2022-12-05T22:31:14.162Z,87.93
2022-12-05T22:33:41.417Z,87.52
2022-12-05T22:36:12.171Z,88.00
2022-12-05T22:38:42.991Z,87.79
2022-12-05T22:41:16.323Z,88.22
2022-12-05T22:43:45.815Z,88.18
2022-12-05T22:46:19.396Z,88.09
2022-12-05T22:48:48.714Z,87.40
2022-12-05T22:51:17.720Z,87.76
2022-12-05T22:53:45.170Z,87.52
2022-12-05T22:56:18.013Z,87.85
2022-12-05T22:58:46.486Z,88.00
2022-12-05T23:01:25.740Z,88.33
2022-12-05T23:04:02.665Z,87.80
2022-12-05T23:06:31.961Z,87.78
2022-12-05T23:08:59.939Z,87.67
2022-12-05T23:11:28.723Z,88.14
2022-12-05T23:14:01.429Z,87.90
2022-12-05T23:16:32.198Z,87.47
2022-12-05T23:19:02.229Z,87.72
2022-12-05T23:21:37.220Z,87.63
2022-12-05T23:24:11.011Z,87.54
2022-12-05T23:26:42.478Z,87.85
2022-12-05T23:29:12.081Z,88.15
2022-12-05T23:31:40.163Z,88.24
2022-12-05T23:34:07.809Z,87.91
2022-12-05T23:36:35.353Z,87.31
2022-12-05T23:39:02.627Z,87.42
2022-12-05T23:41:29.760Z,87.79
2022-12-05T23:43:57.659Z,88.13
2022-12-05T23:46:27.764Z,87.80
2022-12-05T23:48:56.147Z,87.55
2022-12-05T23:51:26.577Z,87.43
2022-12-05T23:53:58.202Z,88.04
2022-12-05T23:56:30.510Z,88.52
2022-12-05T23:58:58.270Z,88.28
